createdAt,value
2019-02-11T00:01:19.781Z,6.60
2019-02-11T00:03:47.618Z,6.50
2019-02-11T00:06:15.484Z,6.50
2019-02-11T00:08:43.353Z,6.40
2019-02-11T00:11:11.158Z,6.40
2019-02-11T00:13:39.278Z,6.30
2019-02-11T00:16:07.075Z,6.20
2019-02-11T00:18:34.921Z,6.00
2019-02-11T00:21:02.807Z,5.90
2019-02-11T00:23:30.649Z,5.80
2019-02-11T00:25:58.819Z,5.70
2019-02-11T00:28:26.733Z,5.60
2019-02-11T00:30:54.591Z,5.50
2019-02-11T00:33:22.722Z,5.50
2019-02-11T00:35:50.498Z,5.40
2019-02-11T00:38:18.272Z,5.40
2019-02-11T00:40:46.153Z,5.30
2019-02-11T00:43:19.112Z,5.20
2019-02-11T00:45:43.627Z,5.20
2019-02-11T00:48:11.745Z,5.20
2019-02-11T00:50:39.564Z,5.20
2019-02-11T00:53:07.694Z,5.20
2019-02-11T00:55:35.510Z,5.10
2019-02-11T00:58:03.371Z,5.10
2019-02-11T01:00:31.272Z,5.10
2019-02-11T01:02:59.097Z,5.10
2019-02-11T01:05:26.974Z,5.00
2019-02-11T01:07:55.222Z,5.00
2019-02-11T01:10:23.122Z,5.00
2019-02-11T01:12:50.971Z,5.00
2019-02-11T01:15:18.871Z,5.00
2019-02-11T01:17:46.702Z,4.90
2019-02-11T01:20:14.670Z,4.80
2019-02-11T01:22:42.637Z,4.70
2019-02-11T01:25:10.525Z,4.70
2019-02-11T01:27:38.397Z,4.60
2019-02-11T01:30:07.534Z,4.60
2019-02-11T01:32:35.354Z,4.50
2019-02-11T01:35:03.367Z,4.40
2019-02-11T01:37:31.154Z,4.30
2019-02-11T01:39:58.954Z,4.20
2019-02-11T01:42:26.834Z,4.00
2019-02-11T01:44:54.693Z,3.80
2019-02-11T01:47:22.566Z,3.60
2019-02-11T01:49:50.423Z,3.40
2019-02-11T01:52:18.310Z,3.10
2019-02-11T01:54:46.146Z,2.90
2019-02-11T01:57:14.311Z,2.80
2019-02-11T01:59:42.463Z,2.70
2019-02-11T02:02:10.578Z,2.70
2019-02-11T02:04:38.435Z,2.70
2019-02-11T02:07:06.221Z,2.70
2019-02-11T02:09:34.083Z,2.60
2019-02-11T02:12:01.949Z,2.50
2019-02-11T02:14:29.810Z,2.40
2019-02-11T02:16:57.695Z,2.50
2019-02-11T02:19:25.550Z,2.50
2019-02-11T02:21:53.442Z,2.50
2019-02-11T02:24:21.294Z,2.50
2019-02-11T02:26:49.181Z,2.50
2019-02-11T02:29:17.037Z,2.50
2019-02-11T02:31:44.892Z,2.50
2019-02-11T02:34:12.688Z,2.40
2019-02-11T02:36:40.513Z,2.40
2019-02-11T02:39:08.301Z,2.40
2019-02-11T02:41:36.135Z,2.30
2019-02-11T02:44:04.014Z,2.30
2019-02-11T02:46:31.903Z,2.20
2019-02-11T02:49:00.209Z,2.10
2019-02-11T02:51:28.033Z,2.10
2019-02-11T02:53:55.800Z,2.00
2019-02-11T02:56:23.667Z,1.90
2019-02-11T02:58:51.507Z,1.80
2019-02-11T03:01:19.409Z,1.70
2019-02-11T03:03:47.182Z,1.60
2019-02-11T03:06:15.023Z,1.60
2019-02-11T03:08:42.819Z,1.60
2019-02-11T03:11:10.655Z,1.60
2019-02-11T03:13:38.802Z,1.60
2019-02-11T03:16:06.587Z,1.60
2019-02-11T03:18:34.478Z,1.60
2019-02-11T03:21:02.248Z,1.70
2019-02-11T03:23:30.111Z,1.70
2019-02-11T03:25:57.962Z,1.70
2019-02-11T03:28:25.847Z,1.70
2019-02-11T03:30:53.695Z,1.70
2019-02-11T03:33:21.887Z,1.60
2019-02-11T03:35:49.736Z,1.60
2019-02-11T03:38:17.499Z,1.60
2019-02-11T03:40:45.394Z,1.60
2019-02-11T03:43:13.230Z,1.70
2019-02-11T03:45:41.143Z,1.70
2019-02-11T03:48:08.980Z,1.90
2019-02-11T03:50:36.854Z,1.90
2019-02-11T03:53:04.970Z,2.00
2019-02-11T03:55:32.951Z,2.10
2019-02-11T03:58:00.741Z,2.20
2019-02-11T04:00:28.615Z,2.30
2019-02-11T04:02:56.511Z,2.30
2019-02-11T04:05:24.350Z,2.40
2019-02-11T04:07:52.242Z,2.50
2019-02-11T04:10:20.087Z,2.50
2019-02-11T04:12:47.969Z,2.60
2019-02-11T04:15:15.743Z,2.70
2019-02-11T04:17:43.673Z,2.80
2019-02-11T04:20:11.728Z,2.90
2019-02-11T04:22:39.556Z,3.00
2019-02-11T04:25:07.393Z,3.00
2019-02-11T04:27:35.286Z,3.10
2019-02-11T04:30:03.136Z,3.30
2019-02-11T04:32:31.001Z,3.30
2019-02-11T04:34:58.959Z,3.40
2019-02-11T04:37:26.901Z,3.50
2019-02-11T04:39:54.926Z,3.50
2019-02-11T04:42:22.786Z,3.60
2019-02-11T04:44:50.658Z,3.70
2019-02-11T04:47:18.503Z,3.70
2019-02-11T04:49:46.293Z,3.70
2019-02-11T04:52:14.129Z,3.70
2019-02-11T04:54:42.030Z,3.70
2019-02-11T04:57:09.875Z,3.80
2019-02-11T04:59:37.671Z,3.80
2019-02-11T05:02:05.769Z,3.80
2019-02-11T05:04:33.597Z,3.80
2019-02-11T05:07:01.748Z,3.90
2019-02-11T05:09:29.536Z,3.90
2019-02-11T05:11:57.302Z,3.80
2019-02-11T05:14:25.205Z,3.90
2019-02-11T05:16:53.220Z,3.90
2019-02-11T05:19:21.380Z,3.90
2019-02-11T05:21:49.261Z,3.90
2019-02-11T05:24:17.548Z,3.90
2019-02-11T05:26:45.403Z,4.00
2019-02-11T05:29:13.285Z,4.00
2019-02-11T05:31:41.135Z,4.00
2019-02-11T05:34:09.040Z,4.10
2019-02-11T05:36:36.875Z,4.10
2019-02-11T05:39:05.638Z,4.10
2019-02-11T05:41:33.438Z,4.10
2019-02-11T05:44:01.244Z,4.10
2019-02-11T05:46:29.369Z,4.10
2019-02-11T05:48:57.266Z,4.10
2019-02-11T05:51:25.114Z,4.10
2019-02-11T05:53:53.398Z,4.20
2019-02-11T05:56:21.255Z,4.20
2019-02-11T05:58:49.216Z,4.20
2019-02-11T06:01:18.484Z,4.20
2019-02-11T06:03:46.581Z,4.20
2019-02-11T06:06:14.445Z,4.20
2019-02-11T06:08:42.320Z,4.20
2019-02-11T06:11:10.462Z,4.30
2019-02-11T06:13:38.568Z,4.30
2019-02-11T06:16:06.456Z,4.30
2019-02-11T06:18:34.302Z,4.30
2019-02-11T06:21:02.185Z,4.30
2019-02-11T06:23:30.039Z,4.30
2019-02-11T06:25:57.936Z,4.30
2019-02-11T06:28:25.777Z,4.30
2019-02-11T06:30:53.654Z,4.30
2019-02-11T06:33:21.432Z,4.40
2019-02-11T06:35:49.303Z,4.40
2019-02-11T06:38:17.133Z,4.40
2019-02-11T06:40:45.043Z,4.40
2019-02-11T06:43:12.870Z,4.40
2019-02-11T06:45:40.663Z,4.50
2019-02-11T06:48:08.874Z,4.50
2019-02-11T06:50:36.657Z,4.50
2019-02-11T06:53:04.464Z,4.50
2019-02-11T06:55:32.338Z,4.50
2019-02-11T06:58:00.182Z,4.50
2019-02-11T07:00:28.081Z,4.50
2019-02-11T07:02:55.913Z,4.60
2019-02-11T07:05:23.812Z,4.60
2019-02-11T07:07:51.651Z,4.60
2019-02-11T07:10:19.571Z,4.60
2019-02-11T07:12:47.378Z,4.60
2019-02-11T07:15:21.562Z,4.60
2019-02-11T07:17:45.208Z,4.60
2019-02-11T07:20:13.452Z,4.50
2019-02-11T07:22:41.326Z,4.50
2019-02-11T07:25:09.261Z,4.50
2019-02-11T07:27:37.075Z,4.60
2019-02-11T07:30:05.165Z,4.60
2019-02-11T07:32:32.998Z,4.70
2019-02-11T07:35:00.891Z,4.70
2019-02-11T07:37:28.814Z,4.80
2019-02-11T07:39:56.602Z,4.80
2019-02-11T07:42:33.042Z,4.80
2019-02-11T07:45:04.819Z,4.90
2019-02-11T07:47:32.682Z,4.90
2019-02-11T07:50:00.655Z,4.90
2019-02-11T07:52:28.551Z,5.00
2019-02-11T07:54:56.393Z,5.00
2019-02-11T07:57:24.195Z,4.90
2019-02-11T07:59:52.040Z,4.80
2019-02-11T08:02:20.204Z,4.80
2019-02-11T08:04:48.061Z,4.70
2019-02-11T08:07:15.975Z,4.70
2019-02-11T08:09:43.738Z,4.70
2019-02-11T08:12:12.274Z,4.80
2019-02-11T08:14:40.190Z,4.80
2019-02-11T08:17:08.319Z,4.90
2019-02-11T08:19:36.171Z,4.90
2019-02-11T08:22:04.327Z,5.00
2019-02-11T08:24:32.121Z,5.00
2019-02-11T08:27:00.017Z,5.00
2019-02-11T08:29:28.889Z,5.00
2019-02-11T08:31:56.778Z,5.10
2019-02-11T08:34:24.638Z,5.20
2019-02-11T08:36:52.505Z,5.20
2019-02-11T08:39:20.363Z,5.20
2019-02-11T08:41:48.231Z,5.30
2019-02-11T08:44:16.140Z,5.30
2019-02-11T08:46:43.971Z,5.40
2019-02-11T08:49:11.844Z,5.40
2019-02-11T08:51:39.621Z,5.40
2019-02-11T08:54:07.478Z,5.40
2019-02-11T08:56:35.333Z,5.40
2019-02-11T08:59:03.232Z,5.40
2019-02-11T09:01:31.137Z,5.40
2019-02-11T09:03:59.223Z,5.40
2019-02-11T09:06:26.985Z,5.40
2019-02-11T09:08:54.903Z,5.50
2019-02-11T09:11:22.809Z,5.40
2019-02-11T09:13:50.611Z,5.40
2019-02-11T09:16:18.477Z,5.40
2019-02-11T09:18:46.349Z,5.40
2019-02-11T09:21:14.409Z,5.40
2019-02-11T09:23:42.282Z,5.50
2019-02-11T09:26:10.192Z,5.50
2019-02-11T09:28:38.016Z,5.50
2019-02-11T09:31:08.107Z,5.50
2019-02-11T09:33:35.911Z,5.50
2019-02-11T09:36:03.880Z,5.50
2019-02-11T09:38:31.729Z,5.60
2019-02-11T09:40:59.534Z,5.60
2019-02-11T09:43:27.371Z,5.60
2019-02-11T09:46:03.562Z,5.60
2019-02-11T09:48:24.854Z,5.70
2019-02-11T09:50:52.987Z,5.70
2019-02-11T09:53:20.778Z,5.80
2019-02-11T09:55:48.663Z,5.80
2019-02-11T09:58:16.522Z,5.90
2019-02-11T10:00:44.409Z,5.90
2019-02-11T10:03:12.245Z,5.90
2019-02-11T10:05:40.151Z,5.90
2019-02-11T10:08:07.921Z,6.00
2019-02-11T10:10:35.711Z,6.00
2019-02-11T10:13:03.490Z,6.00
2019-02-11T10:15:31.283Z,6.00
2019-02-11T10:17:59.319Z,6.00
2019-02-11T10:20:27.110Z,6.00
2019-02-11T10:22:54.874Z,6.00
2019-02-11T10:25:23.319Z,6.10
2019-02-11T10:27:51.694Z,6.10
2019-02-11T10:30:19.774Z,6.10
2019-02-11T10:32:47.591Z,6.10
2019-02-11T10:35:15.609Z,6.10
2019-02-11T10:37:43.466Z,6.20
2019-02-11T10:40:11.606Z,6.20
2019-02-11T10:42:39.446Z,6.40
2019-02-11T10:45:08.555Z,6.40
2019-02-11T10:47:36.604Z,6.50
2019-02-11T10:50:04.849Z,6.50
2019-02-11T10:52:32.659Z,6.50
2019-02-11T10:55:00.751Z,6.50
2019-02-11T10:57:28.573Z,6.60
2019-02-11T10:59:56.377Z,6.50
2019-02-11T11:02:24.166Z,6.60
2019-02-11T11:04:51.925Z,6.60
2019-02-11T11:07:19.792Z,6.60
2019-02-11T11:09:48.051Z,6.50
2019-02-11T11:12:15.855Z,6.50
2019-02-11T11:14:43.630Z,6.40
2019-02-11T11:17:11.705Z,6.50
2019-02-11T11:19:39.559Z,6.50
2019-02-11T11:22:07.503Z,6.60
2019-02-11T11:24:35.298Z,6.70
2019-02-11T11:27:03.143Z,6.70
2019-02-11T11:29:31.580Z,6.80
2019-02-11T11:31:59.564Z,6.70
2019-02-11T11:34:27.838Z,6.70
2019-02-11T11:36:55.629Z,6.80
2019-02-11T11:39:25.454Z,6.80
2019-02-11T11:41:53.358Z,6.80
2019-02-11T11:44:21.138Z,6.90
2019-02-11T11:46:48.933Z,6.90
2019-02-11T11:49:16.706Z,6.80
2019-02-11T11:51:44.490Z,6.80
2019-02-11T11:54:12.328Z,6.70
2019-02-11T11:56:40.224Z,6.80
2019-02-11T11:59:08.280Z,6.80
2019-02-11T12:01:36.344Z,6.80
2019-02-11T12:04:06.593Z,6.80
2019-02-11T12:06:34.249Z,6.80
2019-02-11T12:09:02.118Z,6.80
2019-02-11T12:11:29.996Z,6.80
2019-02-11T12:13:57.967Z,6.70
2019-02-11T12:16:25.915Z,6.70
2019-02-11T12:18:53.859Z,6.80
2019-02-11T12:21:21.838Z,6.80
2019-02-11T12:23:49.804Z,6.90
2019-02-11T12:26:21.257Z,6.90
2019-02-11T12:28:47.783Z,6.80
2019-02-11T12:31:15.684Z,6.70
2019-02-11T12:33:43.636Z,6.60
2019-02-11T12:36:11.531Z,6.30
2019-02-11T12:38:39.635Z,6.20
2019-02-11T12:41:07.449Z,6.00
2019-02-11T12:43:35.260Z,5.90
2019-02-11T12:46:03.098Z,5.80
2019-02-11T12:48:30.928Z,5.80
2019-02-11T12:50:58.832Z,5.90
2019-02-11T12:53:26.612Z,6.10
2019-02-11T12:55:54.459Z,6.40
2019-02-11T12:58:22.239Z,6.50
2019-02-11T13:00:50.332Z,6.70
2019-02-11T13:03:18.184Z,6.80
2019-02-11T13:05:46.598Z,6.90
2019-02-11T13:08:14.863Z,6.90
2019-02-11T13:10:42.851Z,6.90
2019-02-11T13:13:10.657Z,6.90
2019-02-11T13:15:58.970Z,7.00
2019-02-11T13:18:08.627Z,7.10
2019-02-11T13:20:36.593Z,7.20
2019-02-11T13:23:04.856Z,7.20
2019-02-11T13:25:32.639Z,7.20
2019-02-11T13:28:00.550Z,7.10
2019-02-11T13:30:28.406Z,7.20
2019-02-11T13:32:56.540Z,7.20
2019-02-11T13:35:24.401Z,7.30
2019-02-11T13:37:55.101Z,7.30
2019-02-11T13:40:21.893Z,7.20
2019-02-11T13:42:49.934Z,7.10
2019-02-11T13:45:18.132Z,7.10
2019-02-11T13:47:54.955Z,7.10
2019-02-11T13:50:17.278Z,7.10
2019-02-11T13:52:45.229Z,7.10
2019-02-11T13:55:13.154Z,7.20
2019-02-11T13:57:40.991Z,7.20
2019-02-11T14:00:15.565Z,7.20
2019-02-11T14:02:47.022Z,7.20
2019-02-11T14:05:15.067Z,7.20
2019-02-11T14:07:43.489Z,7.30
2019-02-11T14:10:11.524Z,7.50
2019-02-11T14:12:39.526Z,7.60
2019-02-11T14:15:07.391Z,7.60
2019-02-11T14:17:35.291Z,7.50
2019-02-11T14:20:03.194Z,7.50
2019-02-11T14:22:31.113Z,7.50
2019-02-11T14:24:58.967Z,7.40
2019-02-11T14:27:26.874Z,7.10
2019-02-11T14:29:54.695Z,7.00
2019-02-11T14:32:22.663Z,6.90
2019-02-11T14:34:50.550Z,6.90
2019-02-11T14:37:18.635Z,6.90
2019-02-11T14:39:46.557Z,6.80
2019-02-11T14:42:15.233Z,6.90
2019-02-11T14:44:43.375Z,6.80
2019-02-11T14:47:11.250Z,6.70
2019-02-11T14:49:39.062Z,6.60
2019-02-11T14:52:06.993Z,6.60
2019-02-11T14:54:34.827Z,6.60
2019-02-11T14:57:02.723Z,6.50
2019-02-11T14:59:32.469Z,6.50
2019-02-11T15:02:00.399Z,6.50
2019-02-11T15:04:28.232Z,6.50
2019-02-11T15:06:56.160Z,6.50
2019-02-11T15:09:24.226Z,6.50
2019-02-11T15:11:52.322Z,6.40
2019-02-11T15:14:20.126Z,6.40
2019-02-11T15:16:48.971Z,6.40
2019-02-11T15:19:16.834Z,6.40
2019-02-11T15:21:44.681Z,6.40
2019-02-11T15:24:12.856Z,6.30
2019-02-11T15:26:40.713Z,6.30
2019-02-11T15:29:08.673Z,6.30
2019-02-11T15:31:36.903Z,6.20
2019-02-11T15:34:04.779Z,6.20
2019-02-11T15:36:32.737Z,6.20
2019-02-11T15:39:00.503Z,6.20
2019-02-11T15:41:28.421Z,6.10
2019-02-11T15:43:56.287Z,6.10
2019-02-11T15:46:24.162Z,6.10
2019-02-11T15:48:51.986Z,6.10
2019-02-11T15:51:19.893Z,6.00
2019-02-11T15:53:47.728Z,6.00
2019-02-11T15:56:15.639Z,6.00
2019-02-11T15:58:43.461Z,5.90
2019-02-11T16:01:11.349Z,5.90
2019-02-11T16:03:39.245Z,5.80
2019-02-11T16:06:22.253Z,5.80
2019-02-11T16:08:50.072Z,5.70
2019-02-11T16:11:17.996Z,5.70
2019-02-11T16:13:45.811Z,5.60
2019-02-11T16:16:13.669Z,5.50
2019-02-11T16:18:41.591Z,5.50
2019-02-11T16:21:09.401Z,5.40
2019-02-11T16:23:37.325Z,5.30
2019-02-11T16:26:05.142Z,5.30
2019-02-11T16:28:33.064Z,5.30
2019-02-11T16:31:00.883Z,5.30
2019-02-11T16:33:28.787Z,5.20
2019-02-11T16:35:56.559Z,5.20
2019-02-11T16:38:24.439Z,5.20
2019-02-11T16:40:52.322Z,5.10
2019-02-11T16:43:20.150Z,5.00
2019-02-11T16:45:47.979Z,5.00
2019-02-11T16:48:15.938Z,4.90
2019-02-11T16:50:43.822Z,4.90
2019-02-11T16:53:12.006Z,4.90
2019-02-11T16:55:39.857Z,4.80
2019-02-11T16:58:07.765Z,4.80
2019-02-11T17:00:35.547Z,4.80
2019-02-11T17:03:03.411Z,4.70
2019-02-11T17:05:31.500Z,4.70
2019-02-11T17:07:59.342Z,4.70
2019-02-11T17:10:27.447Z,4.60
2019-02-11T17:12:55.290Z,4.60
2019-02-11T17:15:23.111Z,4.60
2019-02-11T17:17:51.028Z,4.60
2019-02-11T17:20:18.821Z,4.60
2019-02-11T17:22:46.674Z,4.60
2019-02-11T17:25:14.792Z,4.60
2019-02-11T17:27:42.867Z,4.50
2019-02-11T17:30:12.000Z,4.50
2019-02-11T17:32:39.855Z,4.50
2019-02-11T17:35:07.879Z,4.50
2019-02-11T17:37:35.767Z,4.50
2019-02-11T17:40:04.167Z,4.50
2019-02-11T17:42:32.148Z,4.50
2019-02-11T17:45:00.228Z,4.50
2019-02-11T17:47:28.182Z,4.50
2019-02-11T17:49:56.016Z,4.50
2019-02-11T17:52:23.785Z,4.50
2019-02-11T17:54:51.627Z,4.50
2019-02-11T17:57:19.377Z,4.50
2019-02-11T17:59:47.181Z,4.50
2019-02-11T18:02:15.037Z,4.50
2019-02-11T18:04:42.955Z,4.60
2019-02-11T18:07:10.775Z,4.70
2019-02-11T18:09:38.582Z,4.70
2019-02-11T18:12:06.366Z,4.70
2019-02-11T18:14:34.203Z,4.60
2019-02-11T18:17:02.345Z,4.50
2019-02-11T18:19:30.256Z,4.40
2019-02-11T18:21:58.094Z,4.40
2019-02-11T18:24:26.003Z,4.40
2019-02-11T18:26:53.846Z,4.30
2019-02-11T18:29:22.364Z,4.30
2019-02-11T18:31:50.162Z,4.30
2019-02-11T18:34:18.098Z,4.30
2019-02-11T18:36:45.953Z,4.30
2019-02-11T18:39:14.185Z,4.20
2019-02-11T18:41:42.090Z,4.20
2019-02-11T18:44:09.915Z,4.20
2019-02-11T18:46:37.840Z,4.20
2019-02-11T18:49:05.650Z,4.20
2019-02-11T18:51:33.538Z,4.20
2019-02-11T18:54:01.356Z,4.20
2019-02-11T18:56:29.137Z,4.20
2019-02-11T18:58:57.143Z,4.10
2019-02-11T19:01:25.166Z,4.10
2019-02-11T19:03:52.998Z,4.10
2019-02-11T19:06:21.013Z,4.10
2019-02-11T19:08:48.857Z,4.10
2019-02-11T19:11:16.783Z,4.00
2019-02-11T19:13:44.633Z,4.00
2019-02-11T19:16:12.394Z,4.00
2019-02-11T19:18:40.239Z,4.00
2019-02-11T19:21:08.015Z,3.90
2019-02-11T19:23:36.093Z,4.00
2019-02-11T19:26:03.879Z,3.90
2019-02-11T19:28:31.691Z,3.90
2019-02-11T19:30:59.463Z,3.80
2019-02-11T19:33:27.314Z,3.80
2019-02-11T19:35:55.094Z,3.70
2019-02-11T19:38:22.915Z,3.70
2019-02-11T19:40:50.842Z,3.70
2019-02-11T19:43:18.934Z,3.70
2019-02-11T19:45:46.795Z,3.70
2019-02-11T19:48:14.619Z,3.70
2019-02-11T19:50:42.425Z,3.60
2019-02-11T19:53:10.351Z,3.50
2019-02-11T19:55:38.279Z,3.50
2019-02-11T19:58:06.113Z,3.40
2019-02-11T20:00:33.887Z,3.40
2019-02-11T20:03:01.755Z,3.40
2019-02-11T20:05:29.531Z,3.50
2019-02-11T20:07:57.452Z,3.50
2019-02-11T20:10:25.235Z,3.50
2019-02-11T20:12:53.136Z,3.60
2019-02-11T20:15:21.691Z,3.60
2019-02-11T20:17:49.535Z,3.60
2019-02-11T20:20:18.323Z,3.70
2019-02-11T20:22:46.200Z,3.90
2019-02-11T20:25:14.301Z,4.10
2019-02-11T20:27:42.557Z,3.90
2019-02-11T20:30:11.605Z,3.80
2019-02-11T20:32:39.502Z,3.70
2019-02-11T20:35:07.547Z,3.60
2019-02-11T20:37:35.367Z,3.50
2019-02-11T20:40:03.991Z,3.50
2019-02-11T20:42:31.928Z,3.40
2019-02-11T20:44:59.740Z,3.40
2019-02-11T20:47:27.546Z,3.30
2019-02-11T20:49:55.322Z,3.30
2019-02-11T20:52:23.362Z,3.30
2019-02-11T20:54:51.130Z,3.30
2019-02-11T20:57:18.910Z,3.20
2019-02-11T20:59:46.709Z,3.20
2019-02-11T21:02:14.587Z,3.20
2019-02-11T21:04:42.397Z,3.10
2019-02-11T21:07:10.487Z,3.10
2019-02-11T21:09:38.314Z,3.10
2019-02-11T21:12:06.069Z,3.10
2019-02-11T21:14:34.186Z,3.00
2019-02-11T21:17:01.990Z,3.00
2019-02-11T21:19:29.807Z,3.00
2019-02-11T21:21:57.582Z,2.90
2019-02-11T21:24:25.417Z,2.90
2019-02-11T21:26:53.263Z,2.90
2019-02-11T21:29:21.114Z,2.90
2019-02-11T21:31:48.934Z,2.90
2019-02-11T21:34:16.806Z,2.90
2019-02-11T21:36:44.889Z,2.80
2019-02-11T21:39:12.723Z,2.80
2019-02-11T21:41:40.498Z,2.90
2019-02-11T21:44:08.647Z,2.80
2019-02-11T21:46:36.399Z,2.80
2019-02-11T21:49:04.342Z,2.80
2019-02-11T21:51:32.113Z,2.70
2019-02-11T21:53:59.919Z,2.80
2019-02-11T21:56:27.946Z,2.70
2019-02-11T21:58:55.962Z,2.70
2019-02-11T22:01:23.780Z,2.60
2019-02-11T22:03:52.722Z,2.60
2019-02-11T22:06:20.486Z,2.60
2019-02-11T22:08:48.734Z,2.50
2019-02-11T22:11:16.710Z,2.50
2019-02-11T22:13:44.518Z,2.50
2019-02-11T22:16:12.306Z,2.50
2019-02-11T22:18:40.100Z,2.50
2019-02-11T22:21:07.867Z,2.40
2019-02-11T22:23:35.655Z,2.40
2019-02-11T22:26:03.427Z,2.40
2019-02-11T22:28:31.212Z,2.40
2019-02-11T22:30:59.004Z,2.40
2019-02-11T22:33:26.791Z,2.40
2019-02-11T22:35:54.749Z,2.50
2019-02-11T22:38:22.543Z,2.50
2019-02-11T22:40:50.579Z,2.50
2019-02-11T22:43:18.386Z,2.50
2019-02-11T22:45:46.246Z,2.60
2019-02-11T22:48:14.391Z,2.60
2019-02-11T22:50:43.394Z,2.60
2019-02-11T22:53:11.671Z,2.60
2019-02-11T22:55:39.461Z,2.70
2019-02-11T22:58:07.321Z,2.70
2019-02-11T23:00:47.167Z,2.70
2019-02-11T23:03:15.432Z,2.70
2019-02-11T23:05:43.552Z,2.70
2019-02-11T23:08:11.678Z,2.70
2019-02-11T23:10:39.656Z,2.70
2019-02-11T23:13:07.985Z,2.70
2019-02-11T23:15:35.819Z,2.70
2019-02-11T23:18:03.665Z,2.70
2019-02-11T23:20:31.541Z,2.70
2019-02-11T23:22:59.398Z,2.70
2019-02-11T23:25:27.379Z,2.70
2019-02-11T23:27:55.246Z,2.70
2019-02-11T23:30:23.135Z,2.70
2019-02-11T23:32:50.975Z,2.70
2019-02-11T23:35:18.860Z,2.70
2019-02-11T23:37:46.718Z,2.70
2019-02-11T23:40:14.599Z,2.70
2019-02-11T23:42:42.437Z,2.80
2019-02-11T23:45:10.522Z,2.80
2019-02-11T23:47:38.288Z,2.80
2019-02-11T23:50:06.161Z,2.80
2019-02-11T23:52:33.931Z,2.80
2019-02-11T23:55:01.812Z,2.80
2019-02-11T23:57:29.637Z,2.80
2019-02-11T23:59:57.542Z,2.80
